sensor_id;sensor_type;location;lat;lon;timestamp;P1;durP1;ratioP1;P2;durP2;ratioP2
47762;SDS011;33526;42.690;23.322;2023-02-17T00:00:56;59.50;;;23.70;;
47762;SDS011;33526;42.690;23.322;2023-02-17T00:03:22;41.30;;;17.53;;
47762;SDS011;33526;42.690;23.322;2023-02-17T00:05:49;58.63;;;24.38;;
47762;SDS011;33526;42.690;23.322;2023-02-17T00:08:15;54.28;;;24.15;;
47762;SDS011;33526;42.690;23.322;2023-02-17T00:10:44;48.40;;;23.58;;
47762;SDS011;33526;42.690;23.322;2023-02-17T00:13:10;54.75;;;22.85;;
47762;SDS011;33526;42.690;23.322;2023-02-17T00:15:38;59.70;;;25.15;;
47762;SDS011;33526;42.690;23.322;2023-02-17T00:18:04;63.03;;;23.63;;
47762;SDS011;33526;42.690;23.322;2023-02-17T00:20:30;58.13;;;23.38;;
47762;SDS011;33526;42.690;23.322;2023-02-17T00:22:56;51.63;;;23.48;;
47762;SDS011;33526;42.690;23.322;2023-02-17T00:25:23;54.63;;;22.00;;
47762;SDS011;33526;42.690;23.322;2023-02-17T00:27:52;55.53;;;23.38;;
47762;SDS011;33526;42.690;23.322;2023-02-17T00:30:17;51.38;;;22.50;;
47762;SDS011;33526;42.690;23.322;2023-02-17T00:32:46;50.17;;;22.77;;
47762;SDS011;33526;42.690;23.322;2023-02-17T00:35:12;57.20;;;21.55;;
47762;SDS011;33526;42.690;23.322;2023-02-17T00:37:40;52.47;;;21.48;;
47762;SDS011;33526;42.690;23.322;2023-02-17T00:40:09;54.65;;;21.17;;
47762;SDS011;33526;42.690;23.322;2023-02-17T00:42:37;56.20;;;21.75;;
47762;SDS011;33526;42.690;23.322;2023-02-17T00:45:03;47.17;;;21.02;;
47762;SDS011;33526;42.690;23.322;2023-02-17T00:47:29;52.80;;;20.17;;
47762;SDS011;33526;42.690;23.322;2023-02-17T00:49:55;50.97;;;21.60;;
47762;SDS011;33526;42.690;23.322;2023-02-17T00:52:21;54.55;;;22.60;;
47762;SDS011;33526;42.690;23.322;2023-02-17T00:54:47;52.60;;;22.80;;
47762;SDS011;33526;42.690;23.322;2023-02-17T00:57:12;48.10;;;21.05;;
47762;SDS011;33526;42.690;23.322;2023-02-17T00:59:39;53.90;;;21.95;;
47762;SDS011;33526;42.690;23.322;2023-02-17T01:02:06;61.35;;;25.63;;
47762;SDS011;33526;42.690;23.322;2023-02-17T01:04:33;67.07;;;26.17;;
47762;SDS011;33526;42.690;23.322;2023-02-17T01:07:04;67.93;;;29.63;;
47762;SDS011;33526;42.690;23.322;2023-02-17T01:09:31;70.47;;;26.95;;
47762;SDS011;33526;42.690;23.322;2023-02-17T01:11:56;58.10;;;24.20;;
47762;SDS011;33526;42.690;23.322;2023-02-17T01:14:22;59.60;;;23.88;;
47762;SDS011;33526;42.690;23.322;2023-02-17T01:16:48;57.25;;;23.63;;
47762;SDS011;33526;42.690;23.322;2023-02-17T01:19:15;58.75;;;23.48;;
47762;SDS011;33526;42.690;23.322;2023-02-17T01:21:43;59.88;;;25.35;;
47762;SDS011;33526;42.690;23.322;2023-02-17T01:24:10;55.67;;;23.35;;
47762;SDS011;33526;42.690;23.322;2023-02-17T01:26:36;67.10;;;23.83;;
47762;SDS011;33526;42.690;23.322;2023-02-17T01:29:03;52.47;;;21.67;;
47762;SDS011;33526;42.690;23.322;2023-02-17T01:31:30;59.80;;;23.58;;
47762;SDS011;33526;42.690;23.322;2023-02-17T01:33:58;52.75;;;23.00;;
47762;SDS011;33526;42.690;23.322;2023-02-17T01:36:26;56.38;;;23.02;;
47762;SDS011;33526;42.690;23.322;2023-02-17T01:38:52;50.63;;;23.25;;
47762;SDS011;33526;42.690;23.322;2023-02-17T01:41:18;51.65;;;23.80;;
47762;SDS011;33526;42.690;23.322;2023-02-17T01:46:49;62.25;;;23.42;;
47762;SDS011;33526;42.690;23.322;2023-02-17T01:49:35;57.28;;;24.48;;
47762;SDS011;33526;42.690;23.322;2023-02-17T01:52:14;59.65;;;25.60;;
47762;SDS011;33526;42.690;23.322;2023-02-17T01:54:46;58.35;;;25.42;;
47762;SDS011;33526;42.690;23.322;2023-02-17T01:57:16;68.50;;;27.17;;
47762;SDS011;33526;42.690;23.322;2023-02-17T01:59:46;61.33;;;25.65;;
47762;SDS011;33526;42.690;23.322;2023-02-17T02:02:13;56.38;;;25.25;;
47762;SDS011;33526;42.690;23.322;2023-02-17T02:04:40;60.07;;;22.33;;
47762;SDS011;33526;42.690;23.322;2023-02-17T02:07:12;93.05;;;36.67;;
47762;SDS011;33526;42.690;23.322;2023-02-17T02:09:45;123.45;;;51.53;;
47762;SDS011;33526;42.690;23.322;2023-02-17T02:12:19;158.65;;;58.67;;
47762;SDS011;33526;42.690;23.322;2023-02-17T02:14:47;155.30;;;61.70;;
47762;SDS011;33526;42.690;23.322;2023-02-17T02:20:06;154.90;;;62.15;;
47762;SDS011;33526;42.690;23.322;2023-02-17T02:34:01;135.07;;;55.25;;
47762;SDS011;33526;42.690;23.322;2023-02-17T02:36:31;130.18;;;53.63;;
47762;SDS011;33526;42.690;23.322;2023-02-17T02:39:18;121.78;;;53.65;;
47762;SDS011;33526;42.690;23.322;2023-02-17T02:44:26;120.60;;;49.30;;
47762;SDS011;33526;42.690;23.322;2023-02-17T02:46:58;125.85;;;49.13;;
47762;SDS011;33526;42.690;23.322;2023-02-17T02:49:28;121.20;;;46.22;;
47762;SDS011;33526;42.690;23.322;2023-02-17T02:54:56;102.22;;;44.28;;
47762;SDS011;33526;42.690;23.322;2023-02-17T03:00:19;110.07;;;42.55;;
47762;SDS011;33526;42.690;23.322;2023-02-17T03:03:10;105.15;;;40.75;;
47762;SDS011;33526;42.690;23.322;2023-02-17T03:05:51;96.28;;;36.92;;
47762;SDS011;33526;42.690;23.322;2023-02-17T03:08:29;95.00;;;38.25;;
47762;SDS011;33526;42.690;23.322;2023-02-17T03:11:04;87.00;;;37.15;;
47762;SDS011;33526;42.690;23.322;2023-02-17T03:13:32;95.55;;;37.78;;
47762;SDS011;33526;42.690;23.322;2023-02-17T03:16:03;101.97;;;41.78;;
47762;SDS011;33526;42.690;23.322;2023-02-17T03:18:32;91.97;;;39.50;;
47762;SDS011;33526;42.690;23.322;2023-02-17T03:21:03;92.88;;;38.35;;
47762;SDS011;33526;42.690;23.322;2023-02-17T03:23:35;79.20;;;36.38;;
47762;SDS011;33526;42.690;23.322;2023-02-17T03:26:01;88.88;;;38.00;;
47762;SDS011;33526;42.690;23.322;2023-02-17T03:28:26;94.50;;;37.75;;
47762;SDS011;33526;42.690;23.322;2023-02-17T03:30:52;94.65;;;37.28;;
47762;SDS011;33526;42.690;23.322;2023-02-17T03:33:18;92.20;;;38.67;;
47762;SDS011;33526;42.690;23.322;2023-02-17T03:35:44;92.35;;;35.83;;
47762;SDS011;33526;42.690;23.322;2023-02-17T03:38:11;89.47;;;38.00;;
47762;SDS011;33526;42.690;23.322;2023-02-17T03:40:46;88.90;;;38.67;;
47762;SDS011;33526;42.690;23.322;2023-02-17T03:43:12;94.03;;;38.40;;
47762;SDS011;33526;42.690;23.322;2023-02-17T03:45:37;92.40;;;38.50;;
47762;SDS011;33526;42.690;23.322;2023-02-17T03:48:03;94.78;;;38.08;;
47762;SDS011;33526;42.690;23.322;2023-02-17T03:50:31;94.53;;;38.65;;
47762;SDS011;33526;42.690;23.322;2023-02-17T03:52:56;95.13;;;38.47;;
47762;SDS011;33526;42.690;23.322;2023-02-17T03:55:22;91.90;;;37.42;;
47762;SDS011;33526;42.690;23.322;2023-02-17T03:57:48;82.88;;;35.35;;
47762;SDS011;33526;42.690;23.322;2023-02-17T04:00:14;87.10;;;35.35;;
47762;SDS011;33526;42.690;23.322;2023-02-17T04:05:06;76.75;;;31.75;;
47762;SDS011;33526;42.690;23.322;2023-02-17T04:07:32;83.97;;;33.38;;
47762;SDS011;33526;42.690;23.322;2023-02-17T04:09:57;71.43;;;31.10;;
47762;SDS011;33526;42.690;23.322;2023-02-17T04:12:24;75.40;;;33.03;;
47762;SDS011;33526;42.690;23.322;2023-02-17T04:14:50;80.68;;;32.85;;
47762;SDS011;33526;42.690;23.322;2023-02-17T04:17:15;83.80;;;33.08;;
47762;SDS011;33526;42.690;23.322;2023-02-17T04:19:44;69.55;;;30.60;;
47762;SDS011;33526;42.690;23.322;2023-02-17T04:22:11;67.55;;;28.90;;
47762;SDS011;33526;42.690;23.322;2023-02-17T04:24:37;78.65;;;31.08;;
47762;SDS011;33526;42.690;23.322;2023-02-17T04:27:03;63.15;;;27.80;;
47762;SDS011;33526;42.690;23.322;2023-02-17T04:29:29;58.30;;;21.35;;
47762;SDS011;33526;42.690;23.322;2023-02-17T04:31:55;70.50;;;29.63;;
47762;SDS011;33526;42.690;23.322;2023-02-17T04:34:22;70.45;;;28.58;;
47762;SDS011;33526;42.690;23.322;2023-02-17T04:39:13;72.07;;;27.38;;
47762;SDS011;33526;42.690;23.322;2023-02-17T04:41:38;59.97;;;26.42;;
47762;SDS011;33526;42.690;23.322;2023-02-17T04:44:04;57.10;;;25.67;;
47762;SDS011;33526;42.690;23.322;2023-02-17T04:46:30;79.00;;;30.17;;
47762;SDS011;33526;42.690;23.322;2023-02-17T04:48:55;66.43;;;27.48;;
47762;SDS011;33526;42.690;23.322;2023-02-17T04:51:21;61.15;;;25.52;;
47762;SDS011;33526;42.690;23.322;2023-02-17T04:53:47;56.30;;;25.70;;
47762;SDS011;33526;42.690;23.322;2023-02-17T04:56:14;62.33;;;26.27;;
47762;SDS011;33526;42.690;23.322;2023-02-17T04:58:39;66.97;;;26.45;;
47762;SDS011;33526;42.690;23.322;2023-02-17T05:01:08;57.45;;;25.00;;
47762;SDS011;33526;42.690;23.322;2023-02-17T05:03:34;56.92;;;23.35;;
47762;SDS011;33526;42.690;23.322;2023-02-17T05:06:00;64.60;;;24.83;;
47762;SDS011;33526;42.690;23.322;2023-02-17T05:08:27;59.05;;;24.73;;
47762;SDS011;33526;42.690;23.322;2023-02-17T05:10:53;59.05;;;23.13;;
47762;SDS011;33526;42.690;23.322;2023-02-17T05:13:19;60.67;;;23.00;;
47762;SDS011;33526;42.690;23.322;2023-02-17T05:15:45;68.13;;;24.83;;
47762;SDS011;33526;42.690;23.322;2023-02-17T05:18:11;50.08;;;24.08;;
47762;SDS011;33526;42.690;23.322;2023-02-17T05:20:38;54.72;;;22.63;;
47762;SDS011;33526;42.690;23.322;2023-02-17T05:23:05;54.28;;;22.48;;
47762;SDS011;33526;42.690;23.322;2023-02-17T05:25:31;52.25;;;23.02;;
47762;SDS011;33526;42.690;23.322;2023-02-17T05:27:58;58.20;;;23.45;;
47762;SDS011;33526;42.690;23.322;2023-02-17T05:30:28;47.85;;;22.48;;
47762;SDS011;33526;42.690;23.322;2023-02-17T05:32:57;46.88;;;21.65;;
47762;SDS011;33526;42.690;23.322;2023-02-17T05:35:27;49.40;;;22.27;;
47762;SDS011;33526;42.690;23.322;2023-02-17T05:37:55;56.17;;;22.73;;
47762;SDS011;33526;42.690;23.322;2023-02-17T05:40:27;54.33;;;21.08;;
47762;SDS011;33526;42.690;23.322;2023-02-17T05:42:55;52.10;;;22.42;;
47762;SDS011;33526;42.690;23.322;2023-02-17T05:45:28;44.67;;;20.85;;
47762;SDS011;33526;42.690;23.322;2023-02-17T05:47:55;53.03;;;21.77;;
47762;SDS011;33526;42.690;23.322;2023-02-17T05:50:22;57.30;;;24.00;;
47762;SDS011;33526;42.690;23.322;2023-02-17T05:52:54;58.28;;;23.15;;
47762;SDS011;33526;42.690;23.322;2023-02-17T05:55:20;57.70;;;24.40;;
47762;SDS011;33526;42.690;23.322;2023-02-17T06:00:15;55.03;;;23.65;;
47762;SDS011;33526;42.690;23.322;2023-02-17T06:02:41;59.78;;;23.13;;
47762;SDS011;33526;42.690;23.322;2023-02-17T06:07:39;61.15;;;21.95;;
47762;SDS011;33526;42.690;23.322;2023-02-17T06:10:06;58.55;;;24.00;;
47762;SDS011;33526;42.690;23.322;2023-02-17T06:12:34;56.95;;;23.75;;
47762;SDS011;33526;42.690;23.322;2023-02-17T06:15:00;56.05;;;23.25;;
47762;SDS011;33526;42.690;23.322;2023-02-17T06:19:55;52.63;;;22.20;;
47762;SDS011;33526;42.690;23.322;2023-02-17T06:22:22;51.72;;;22.50;;
47762;SDS011;33526;42.690;23.322;2023-02-17T06:24:48;54.83;;;21.50;;
47762;SDS011;33526;42.690;23.322;2023-02-17T06:27:16;52.83;;;22.08;;
47762;SDS011;33526;42.690;23.322;2023-02-17T06:29:49;52.28;;;21.15;;
47762;SDS011;33526;42.690;23.322;2023-02-17T06:32:17;53.42;;;20.88;;
47762;SDS011;33526;42.690;23.322;2023-02-17T06:34:43;49.40;;;20.55;;
47762;SDS011;33526;42.690;23.322;2023-02-17T06:37:16;51.60;;;21.23;;
47762;SDS011;33526;42.690;23.322;2023-02-17T06:42:45;44.13;;;19.65;;
47762;SDS011;33526;42.690;23.322;2023-02-17T06:45:13;57.72;;;23.33;;
47762;SDS011;33526;42.690;23.322;2023-02-17T06:47:45;49.55;;;20.92;;
47762;SDS011;33526;42.690;23.322;2023-02-17T06:50:15;42.08;;;20.20;;
47762;SDS011;33526;42.690;23.322;2023-02-17T06:53:07;46.10;;;19.08;;
47762;SDS011;33526;42.690;23.322;2023-02-17T06:55:40;48.90;;;19.65;;
47762;SDS011;33526;42.690;23.322;2023-02-17T07:19:56;60.72;;;26.98;;
47762;SDS011;33526;42.690;23.322;2023-02-17T07:22:24;59.67;;;24.90;;
47762;SDS011;33526;42.690;23.322;2023-02-17T07:28:30;56.85;;;24.73;;
47762;SDS011;33526;42.690;23.322;2023-02-17T07:34:09;54.00;;;23.63;;
47762;SDS011;33526;42.690;23.322;2023-02-17T07:37:18;58.40;;;25.60;;
47762;SDS011;33526;42.690;23.322;2023-02-17T07:40:05;48.95;;;23.20;;
47762;SDS011;33526;42.690;23.322;2023-02-17T07:42:35;58.58;;;25.40;;
47762;SDS011;33526;42.690;23.322;2023-02-17T07:45:08;59.05;;;23.33;;
47762;SDS011;33526;42.690;23.322;2023-02-17T07:47:41;53.60;;;23.13;;
47762;SDS011;33526;42.690;23.322;2023-02-17T07:50:12;59.05;;;23.50;;
47762;SDS011;33526;42.690;23.322;2023-02-17T07:53:12;56.95;;;22.85;;
47762;SDS011;33526;42.690;23.322;2023-02-17T07:55:43;51.30;;;22.27;;
47762;SDS011;33526;42.690;23.322;2023-02-17T07:58:18;47.10;;;20.58;;
47762;SDS011;33526;42.690;23.322;2023-02-17T08:05:38;44.33;;;21.40;;
47762;SDS011;33526;42.690;23.322;2023-02-17T08:08:09;47.85;;;21.42;;
47762;SDS011;33526;42.690;23.322;2023-02-17T08:14:46;47.75;;;22.73;;
47762;SDS011;33526;42.690;23.322;2023-02-17T08:28:58;59.70;;;25.52;;
47762;SDS011;33526;42.690;23.322;2023-02-17T08:32:01;58.30;;;27.20;;
47762;SDS011;33526;42.690;23.322;2023-02-17T08:34:53;62.10;;;29.15;;
47762;SDS011;33526;42.690;23.322;2023-02-17T08:37:25;68.82;;;30.17;;
47762;SDS011;33526;42.690;23.322;2023-02-17T08:39:57;66.43;;;31.30;;
47762;SDS011;33526;42.690;23.322;2023-02-17T08:42:26;78.55;;;31.83;;
47762;SDS011;33526;42.690;23.322;2023-02-17T09:03:33;57.40;;;27.23;;
47762;SDS011;33526;42.690;23.322;2023-02-17T09:17:10;16.25;;;8.18;;
47762;SDS011;33526;42.690;23.322;2023-02-17T16:44:00;63.17;;;30.92;;
47762;SDS011;33526;42.690;23.322;2023-02-17T17:09:10;30.52;;;14.02;;
47762;SDS011;33526;42.690;23.322;2023-02-17T19:04:04;39.53;;;18.88;;
47762;SDS011;33526;42.690;23.322;2023-02-17T19:07:23;46.35;;;23.08;;
47762;SDS011;33526;42.690;23.322;2023-02-17T19:10:13;72.13;;;31.25;;
47762;SDS011;33526;42.690;23.322;2023-02-17T19:29:42;35.17;;;15.13;;
47762;SDS011;33526;42.690;23.322;2023-02-17T20:23:56;48.90;;;22.73;;
47762;SDS011;33526;42.690;23.322;2023-02-17T20:30:31;55.00;;;26.48;;
47762;SDS011;33526;42.690;23.322;2023-02-17T20:33:58;55.90;;;24.92;;
47762;SDS011;33526;42.690;23.322;2023-02-17T21:07:30;34.00;;;16.40;;
47762;SDS011;33526;42.690;23.322;2023-02-17T21:10:29;35.50;;;14.00;;
47762;SDS011;33526;42.690;23.322;2023-02-17T21:20:13;28.77;;;14.10;;
47762;SDS011;33526;42.690;23.322;2023-02-17T21:23:42;55.00;;;22.65;;
47762;SDS011;33526;42.690;23.322;2023-02-17T21:26:53;45.35;;;20.30;;
47762;SDS011;33526;42.690;23.322;2023-02-17T21:29:35;57.17;;;22.08;;
47762;SDS011;33526;42.690;23.322;2023-02-17T21:45:48;52.40;;;23.25;;
47762;SDS011;33526;42.690;23.322;2023-02-17T21:49:14;47.67;;;21.75;;
47762;SDS011;33526;42.690;23.322;2023-02-17T21:58:31;68.28;;;28.88;;
47762;SDS011;33526;42.690;23.322;2023-02-17T22:01:06;58.22;;;23.83;;
47762;SDS011;33526;42.690;23.322;2023-02-17T22:07:29;68.60;;;27.00;;
47762;SDS011;33526;42.690;23.322;2023-02-17T22:15:56;78.07;;;31.90;;
47762;SDS011;33526;42.690;23.322;2023-02-17T22:22:09;79.57;;;30.40;;
47762;SDS011;33526;42.690;23.322;2023-02-17T22:24:43;66.82;;;27.00;;
47762;SDS011;33526;42.690;23.322;2023-02-17T22:28:02;75.07;;;31.70;;
47762;SDS011;33526;42.690;23.322;2023-02-17T22:45:17;40.63;;;17.65;;
47762;SDS011;33526;42.690;23.322;2023-02-17T22:47:47;30.90;;;13.25;;
47762;SDS011;33526;42.690;23.322;2023-02-17T23:23:56;54.92;;;22.02;;
47762;SDS011;33526;42.690;23.322;2023-02-17T23:27:26;47.40;;;20.45;;
47762;SDS011;33526;42.690;23.322;2023-02-17T23:33:15;46.10;;;20.67;;
47762;SDS011;33526;42.690;23.322;2023-02-17T23:36:28;43.35;;;20.73;;
47762;SDS011;33526;42.690;23.322;2023-02-17T23:47:27;47.67;;;20.45;;
47762;SDS011;33526;42.690;23.322;2023-02-17T23:53:17;47.08;;;19.75;;
47762;SDS011;33526;42.690;23.322;2023-02-17T23:56:05;50.15;;;20.90;;
47762;SDS011;33526;42.690;23.322;2023-02-17T23:59:42;47.75;;;19.23;;
